Main page
METAR-TAF:

METAR-TAF

Airports :

Wichita Falls Municipal Airport

Wichita Falls, Texas, United States

latitude: 33-58-43N, longitude: 098-29-34W, elevation: 1014 ft

Current weather observation

The report was made 44 minutes ago, at 07:52 UTC
Wind 6 mph from the South
Temperature 73°F
Humidity 78%
Pressure 29.95 in. Hg
Visibility: 10 miles
Clear sky

METAR: KSPS 150752Z AUTO 17005KT 10SM CLR 23/19 A2995 RMK AO2 SLP125 T02280194 $

Time: 03:36 (08:36 UTC)

Forecast

The report was made 3 hours and 16 minutes ago, at 05:20 UTC
Forecast valid from 15 at 06 UTC to 16 at 06 UTC
Wind 10 mph from the South/Southeast
Visibility: 6 miles
Few clouds at a height of 25000 ft

TAF: KSPS 150520Z 1506/1606 16009KT P6SM FEW250

Weather observations and forecasts of more than 4000 airports (METAR and TAF reports).

The available stations are represented by yellow and red dots on the map.

Hover mouse over dot to see the name of the station.

Then click to see weather observations and forecasts.

To change the map : click on the green buttons with a black cross to zoom in, on the green button with a dash to zoom out, or on the green arrows for adjacent maps.


METAR-TAF: